sensor_id;sensor_type;location;lat;lon;timestamp;P1;durP1;ratioP1;P2;durP2;ratioP2
30723;SDS011;17473;52.286;20.930;2023-05-14T00:01:30;21.40;;;13.32;;
30723;SDS011;17473;52.286;20.930;2023-05-14T00:03:57;23.17;;;12.85;;
30723;SDS011;17473;52.286;20.930;2023-05-14T00:06:25;21.48;;;12.57;;
30723;SDS011;17473;52.286;20.930;2023-05-14T00:08:52;21.83;;;13.32;;
30723;SDS011;17473;52.286;20.930;2023-05-14T00:11:19;20.27;;;13.48;;
30723;SDS011;17473;52.286;20.930;2023-05-14T00:13:46;19.63;;;13.32;;
30723;SDS011;17473;52.286;20.930;2023-05-14T00:16:14;21.48;;;12.63;;
30723;SDS011;17473;52.286;20.930;2023-05-14T00:18:41;22.88;;;13.68;;
30723;SDS011;17473;52.286;20.930;2023-05-14T00:21:08;21.85;;;14.20;;
30723;SDS011;17473;52.286;20.930;2023-05-14T00:23:35;29.05;;;14.65;;
30723;SDS011;17473;52.286;20.930;2023-05-14T00:26:02;22.23;;;14.45;;
30723;SDS011;17473;52.286;20.930;2023-05-14T00:28:29;23.83;;;15.13;;
30723;SDS011;17473;52.286;20.930;2023-05-14T00:30:56;28.50;;;17.17;;
30723;SDS011;17473;52.286;20.930;2023-05-14T00:33:23;24.15;;;15.07;;
30723;SDS011;17473;52.286;20.930;2023-05-14T00:35:50;23.95;;;14.63;;
30723;SDS011;17473;52.286;20.930;2023-05-14T00:38:17;25.50;;;15.38;;
30723;SDS011;17473;52.286;20.930;2023-05-14T00:40:45;32.45;;;15.65;;
30723;SDS011;17473;52.286;20.930;2023-05-14T00:43:17;22.13;;;13.25;;
30723;SDS011;17473;52.286;20.930;2023-05-14T00:45:46;20.88;;;13.18;;
30723;SDS011;17473;52.286;20.930;2023-05-14T00:48:16;25.55;;;14.90;;
30723;SDS011;17473;52.286;20.930;2023-05-14T00:50:44;19.45;;;13.38;;
30723;SDS011;17473;52.286;20.930;2023-05-14T00:53:11;22.50;;;13.05;;
30723;SDS011;17473;52.286;20.930;2023-05-14T00:55:39;21.30;;;13.60;;
30723;SDS011;17473;52.286;20.930;2023-05-14T00:58:11;24.83;;;15.48;;
30723;SDS011;17473;52.286;20.930;2023-05-14T01:00:39;22.77;;;14.68;;
30723;SDS011;17473;52.286;20.930;2023-05-14T01:03:07;22.45;;;13.90;;
30723;SDS011;17473;52.286;20.930;2023-05-14T01:11:31;27.42;;;15.88;;
30723;SDS011;17473;52.286;20.930;2023-05-14T01:17:10;26.58;;;16.42;;
30723;SDS011;17473;52.286;20.930;2023-05-14T01:19:44;29.95;;;15.25;;
30723;SDS011;17473;52.286;20.930;2023-05-14T01:22:13;24.75;;;15.18;;
30723;SDS011;17473;52.286;20.930;2023-05-14T01:24:40;26.98;;;14.50;;
30723;SDS011;17473;52.286;20.930;2023-05-14T01:27:24;24.90;;;14.50;;
30723;SDS011;17473;52.286;20.930;2023-05-14T01:30:33;22.95;;;14.07;;
30723;SDS011;17473;52.286;20.930;2023-05-14T01:33:08;23.50;;;15.10;;
30723;SDS011;17473;52.286;20.930;2023-05-14T01:35:38;21.35;;;13.15;;
30723;SDS011;17473;52.286;20.930;2023-05-14T01:38:07;22.10;;;13.95;;
30723;SDS011;17473;52.286;20.930;2023-05-14T01:40:37;29.15;;;14.65;;
30723;SDS011;17473;52.286;20.930;2023-05-14T01:43:05;26.43;;;14.20;;
30723;SDS011;17473;52.286;20.930;2023-05-14T01:45:34;30.02;;;16.02;;
30723;SDS011;17473;52.286;20.930;2023-05-14T01:48:02;27.30;;;15.10;;
30723;SDS011;17473;52.286;20.930;2023-05-14T01:50:30;26.25;;;15.77;;
30723;SDS011;17473;52.286;20.930;2023-05-14T01:52:57;26.42;;;16.38;;
30723;SDS011;17473;52.286;20.930;2023-05-14T01:55:24;25.38;;;16.10;;
30723;SDS011;17473;52.286;20.930;2023-05-14T01:57:52;27.13;;;16.13;;
30723;SDS011;17473;52.286;20.930;2023-05-14T02:00:20;24.95;;;15.55;;
30723;SDS011;17473;52.286;20.930;2023-05-14T02:02:52;29.05;;;15.95;;
30723;SDS011;17473;52.286;20.930;2023-05-14T02:05:20;20.25;;;14.25;;
30723;SDS011;17473;52.286;20.930;2023-05-14T02:07:47;21.63;;;13.05;;
30723;SDS011;17473;52.286;20.930;2023-05-14T02:10:14;20.63;;;13.20;;
30723;SDS011;17473;52.286;20.930;2023-05-14T02:12:41;23.83;;;14.83;;
30723;SDS011;17473;52.286;20.930;2023-05-14T02:15:08;21.10;;;13.73;;
30723;SDS011;17473;52.286;20.930;2023-05-14T02:17:36;24.30;;;15.20;;
30723;SDS011;17473;52.286;20.930;2023-05-14T02:20:03;23.80;;;14.68;;
30723;SDS011;17473;52.286;20.930;2023-05-14T02:22:32;25.10;;;14.73;;
30723;SDS011;17473;52.286;20.930;2023-05-14T02:24:59;20.90;;;14.43;;
30723;SDS011;17473;52.286;20.930;2023-05-14T02:27:26;22.42;;;14.65;;
30723;SDS011;17473;52.286;20.930;2023-05-14T02:29:53;24.77;;;16.50;;
30723;SDS011;17473;52.286;20.930;2023-05-14T02:32:21;23.03;;;15.17;;
30723;SDS011;17473;52.286;20.930;2023-05-14T02:34:48;25.03;;;15.80;;
30723;SDS011;17473;52.286;20.930;2023-05-14T02:37:15;26.70;;;16.42;;
30723;SDS011;17473;52.286;20.930;2023-05-14T02:39:42;28.08;;;15.23;;
30723;SDS011;17473;52.286;20.930;2023-05-14T02:42:10;24.57;;;15.83;;
30723;SDS011;17473;52.286;20.930;2023-05-14T02:44:37;25.70;;;16.00;;
30723;SDS011;17473;52.286;20.930;2023-05-14T02:47:04;22.50;;;15.50;;
30723;SDS011;17473;52.286;20.930;2023-05-14T02:49:31;21.60;;;14.47;;
30723;SDS011;17473;52.286;20.930;2023-05-14T02:51:58;26.33;;;15.43;;
30723;SDS011;17473;52.286;20.930;2023-05-14T02:54:26;28.88;;;16.80;;
30723;SDS011;17473;52.286;20.930;2023-05-14T02:56:53;25.80;;;15.70;;
30723;SDS011;17473;52.286;20.930;2023-05-14T02:59:20;25.07;;;15.97;;
30723;SDS011;17473;52.286;20.930;2023-05-14T03:01:49;31.50;;;16.63;;
30723;SDS011;17473;52.286;20.930;2023-05-14T03:04:17;27.63;;;16.23;;
30723;SDS011;17473;52.286;20.930;2023-05-14T03:06:44;25.97;;;17.43;;
30723;SDS011;17473;52.286;20.930;2023-05-14T03:09:11;23.98;;;16.15;;
30723;SDS011;17473;52.286;20.930;2023-05-14T03:11:38;25.07;;;16.50;;
30723;SDS011;17473;52.286;20.930;2023-05-14T03:14:05;21.33;;;15.07;;
30723;SDS011;17473;52.286;20.930;2023-05-14T03:16:32;29.27;;;16.13;;
30723;SDS011;17473;52.286;20.930;2023-05-14T03:19:00;27.13;;;16.77;;
30723;SDS011;17473;52.286;20.930;2023-05-14T03:21:27;28.23;;;16.50;;
30723;SDS011;17473;52.286;20.930;2023-05-14T03:23:54;26.73;;;16.83;;
30723;SDS011;17473;52.286;20.930;2023-05-14T03:26:21;26.10;;;17.60;;
30723;SDS011;17473;52.286;20.930;2023-05-14T03:28:48;27.67;;;16.33;;
30723;SDS011;17473;52.286;20.930;2023-05-14T03:31:16;24.43;;;16.13;;
30723;SDS011;17473;52.286;20.930;2023-05-14T03:33:43;26.23;;;16.42;;
30723;SDS011;17473;52.286;20.930;2023-05-14T03:36:10;27.58;;;16.27;;
30723;SDS011;17473;52.286;20.930;2023-05-14T03:38:37;30.73;;;17.67;;
30723;SDS011;17473;52.286;20.930;2023-05-14T03:41:04;29.27;;;16.02;;
30723;SDS011;17473;52.286;20.930;2023-05-14T03:43:31;28.02;;;16.48;;
30723;SDS011;17473;52.286;20.930;2023-05-14T03:45:58;30.40;;;16.20;;
30723;SDS011;17473;52.286;20.930;2023-05-14T03:48:25;23.73;;;16.90;;
30723;SDS011;17473;52.286;20.930;2023-05-14T03:50:53;29.95;;;18.00;;
30723;SDS011;17473;52.286;20.930;2023-05-14T03:53:20;27.30;;;17.17;;
30723;SDS011;17473;52.286;20.930;2023-05-14T03:55:47;23.13;;;15.73;;
30723;SDS011;17473;52.286;20.930;2023-05-14T03:58:14;22.25;;;15.40;;
30723;SDS011;17473;52.286;20.930;2023-05-14T04:00:41;25.50;;;16.30;;
30723;SDS011;17473;52.286;20.930;2023-05-14T04:03:09;27.15;;;16.70;;
30723;SDS011;17473;52.286;20.930;2023-05-14T04:05:37;29.60;;;16.90;;
30723;SDS011;17473;52.286;20.930;2023-05-14T04:08:04;30.85;;;17.40;;
30723;SDS011;17473;52.286;20.930;2023-05-14T04:10:31;29.60;;;16.60;;
30723;SDS011;17473;52.286;20.930;2023-05-14T04:12:58;24.05;;;15.50;;
30723;SDS011;17473;52.286;20.930;2023-05-14T04:15:25;36.65;;;15.38;;
30723;SDS011;17473;52.286;20.930;2023-05-14T04:17:52;23.67;;;15.60;;
30723;SDS011;17473;52.286;20.930;2023-05-14T04:20:19;22.17;;;15.73;;
30723;SDS011;17473;52.286;20.930;2023-05-14T04:22:46;23.90;;;13.13;;
30723;SDS011;17473;52.286;20.930;2023-05-14T04:25:13;20.10;;;14.35;;
30723;SDS011;17473;52.286;20.930;2023-05-14T04:27:41;22.17;;;15.00;;
30723;SDS011;17473;52.286;20.930;2023-05-14T04:30:08;24.20;;;14.98;;
30723;SDS011;17473;52.286;20.930;2023-05-14T04:32:35;20.75;;;13.90;;
30723;SDS011;17473;52.286;20.930;2023-05-14T04:35:03;23.83;;;14.85;;
30723;SDS011;17473;52.286;20.930;2023-05-14T04:37:31;27.00;;;14.38;;
30723;SDS011;17473;52.286;20.930;2023-05-14T04:39:58;21.17;;;13.90;;
30723;SDS011;17473;52.286;20.930;2023-05-14T04:42:26;19.67;;;14.82;;
30723;SDS011;17473;52.286;20.930;2023-05-14T04:44:53;21.77;;;14.57;;
30723;SDS011;17473;52.286;20.930;2023-05-14T04:47:20;20.15;;;14.88;;
30723;SDS011;17473;52.286;20.930;2023-05-14T04:49:47;25.00;;;15.15;;
30723;SDS011;17473;52.286;20.930;2023-05-14T04:52:14;22.17;;;14.57;;
30723;SDS011;17473;52.286;20.930;2023-05-14T04:54:41;22.40;;;15.40;;
30723;SDS011;17473;52.286;20.930;2023-05-14T04:57:08;18.02;;;14.40;;
30723;SDS011;17473;52.286;20.930;2023-05-14T04:59:35;22.80;;;16.70;;
30723;SDS011;17473;52.286;20.930;2023-05-14T05:02:02;24.95;;;16.02;;
30723;SDS011;17473;52.286;20.930;2023-05-14T05:04:30;24.77;;;16.13;;
30723;SDS011;17473;52.286;20.930;2023-05-14T05:06:57;26.13;;;15.68;;
30723;SDS011;17473;52.286;20.930;2023-05-14T05:09:24;23.50;;;15.32;;
30723;SDS011;17473;52.286;20.930;2023-05-14T05:11:51;21.80;;;15.55;;
30723;SDS011;17473;52.286;20.930;2023-05-14T05:14:18;27.48;;;14.27;;
30723;SDS011;17473;52.286;20.930;2023-05-14T05:16:45;19.75;;;13.63;;
30723;SDS011;17473;52.286;20.930;2023-05-14T05:19:12;22.45;;;14.13;;
30723;SDS011;17473;52.286;20.930;2023-05-14T05:21:39;19.38;;;13.40;;
30723;SDS011;17473;52.286;20.930;2023-05-14T05:24:07;23.27;;;13.40;;
30723;SDS011;17473;52.286;20.930;2023-05-14T05:26:34;19.10;;;12.95;;
30723;SDS011;17473;52.286;20.930;2023-05-14T05:29:04;18.48;;;12.60;;
30723;SDS011;17473;52.286;20.930;2023-05-14T05:31:31;18.65;;;12.95;;
30723;SDS011;17473;52.286;20.930;2023-05-14T05:33:59;18.13;;;13.32;;
30723;SDS011;17473;52.286;20.930;2023-05-14T05:36:26;20.77;;;12.20;;
30723;SDS011;17473;52.286;20.930;2023-05-14T05:38:54;20.98;;;12.10;;
30723;SDS011;17473;52.286;20.930;2023-05-14T05:41:21;17.02;;;11.95;;
30723;SDS011;17473;52.286;20.930;2023-05-14T05:43:48;19.10;;;10.52;;
30723;SDS011;17473;52.286;20.930;2023-05-14T05:46:15;18.15;;;11.18;;
30723;SDS011;17473;52.286;20.930;2023-05-14T05:48:42;13.63;;;10.35;;
30723;SDS011;17473;52.286;20.930;2023-05-14T05:51:09;16.08;;;10.25;;
30723;SDS011;17473;52.286;20.930;2023-05-14T05:53:36;15.73;;;10.13;;
30723;SDS011;17473;52.286;20.930;2023-05-14T05:56:03;20.00;;;10.88;;
30723;SDS011;17473;52.286;20.930;2023-05-14T05:58:31;18.67;;;9.85;;
30723;SDS011;17473;52.286;20.930;2023-05-14T06:00:58;12.82;;;9.48;;
30723;SDS011;17473;52.286;20.930;2023-05-14T06:03:26;17.58;;;8.60;;
30723;SDS011;17473;52.286;20.930;2023-05-14T06:05:53;14.32;;;9.18;;
30723;SDS011;17473;52.286;20.930;2023-05-14T06:08:20;15.00;;;9.10;;
30723;SDS011;17473;52.286;20.930;2023-05-14T06:10:47;15.05;;;8.57;;
30723;SDS011;17473;52.286;20.930;2023-05-14T06:13:14;12.60;;;7.97;;
30723;SDS011;17473;52.286;20.930;2023-05-14T06:15:42;11.80;;;8.05;;
30723;SDS011;17473;52.286;20.930;2023-05-14T06:18:09;14.43;;;8.85;;
30723;SDS011;17473;52.286;20.930;2023-05-14T06:20:36;14.50;;;8.25;;
30723;SDS011;17473;52.286;20.930;2023-05-14T06:23:03;17.30;;;7.47;;
30723;SDS011;17473;52.286;20.930;2023-05-14T06:25:31;8.25;;;7.20;;
30723;SDS011;17473;52.286;20.930;2023-05-14T06:27:58;10.77;;;7.75;;
30723;SDS011;17473;52.286;20.930;2023-05-14T06:30:25;17.83;;;7.78;;
30723;SDS011;17473;52.286;20.930;2023-05-14T06:32:52;11.38;;;7.35;;
30723;SDS011;17473;52.286;20.930;2023-05-14T06:35:19;9.90;;;6.85;;
30723;SDS011;17473;52.286;20.930;2023-05-14T06:37:46;15.32;;;8.32;;
30723;SDS011;17473;52.286;20.930;2023-05-14T06:40:13;13.02;;;7.38;;
30723;SDS011;17473;52.286;20.930;2023-05-14T06:42:41;9.73;;;7.45;;
30723;SDS011;17473;52.286;20.930;2023-05-14T06:45:08;15.65;;;7.60;;
30723;SDS011;17473;52.286;20.930;2023-05-14T06:47:35;12.23;;;6.85;;
30723;SDS011;17473;52.286;20.930;2023-05-14T06:50:03;15.18;;;7.15;;
30723;SDS011;17473;52.286;20.930;2023-05-14T06:52:30;10.57;;;7.30;;
30723;SDS011;17473;52.286;20.930;2023-05-14T06:54:57;13.35;;;7.00;;
30723;SDS011;17473;52.286;20.930;2023-05-14T06:57:24;13.30;;;7.25;;
30723;SDS011;17473;52.286;20.930;2023-05-14T06:59:51;11.73;;;7.68;;
30723;SDS011;17473;52.286;20.930;2023-05-14T07:02:18;16.05;;;7.80;;
30723;SDS011;17473;52.286;20.930;2023-05-14T07:04:46;9.93;;;7.22;;
30723;SDS011;17473;52.286;20.930;2023-05-14T07:07:13;15.32;;;6.88;;
30723;SDS011;17473;52.286;20.930;2023-05-14T07:09:43;11.85;;;7.28;;
30723;SDS011;17473;52.286;20.930;2023-05-14T07:12:10;11.90;;;6.18;;
30723;SDS011;17473;52.286;20.930;2023-05-14T07:14:37;13.98;;;6.30;;
30723;SDS011;17473;52.286;20.930;2023-05-14T07:17:04;7.97;;;5.28;;
30723;SDS011;17473;52.286;20.930;2023-05-14T07:19:31;13.27;;;6.47;;
30723;SDS011;17473;52.286;20.930;2023-05-14T07:21:58;7.03;;;4.88;;
30723;SDS011;17473;52.286;20.930;2023-05-14T07:24:26;12.82;;;5.25;;
30723;SDS011;17473;52.286;20.930;2023-05-14T07:26:53;13.25;;;5.22;;
30723;SDS011;17473;52.286;20.930;2023-05-14T07:29:22;9.50;;;5.00;;
30723;SDS011;17473;52.286;20.930;2023-05-14T07:31:50;6.55;;;4.72;;
30723;SDS011;17473;52.286;20.930;2023-05-14T07:34:17;8.60;;;4.47;;
30723;SDS011;17473;52.286;20.930;2023-05-14T07:36:44;12.80;;;4.75;;
30723;SDS011;17473;52.286;20.930;2023-05-14T07:39:12;11.10;;;4.78;;
30723;SDS011;17473;52.286;20.930;2023-05-14T07:41:39;7.22;;;4.15;;
30723;SDS011;17473;52.286;20.930;2023-05-14T07:44:06;10.70;;;4.40;;
30723;SDS011;17473;52.286;20.930;2023-05-14T07:46:33;6.43;;;4.03;;
30723;SDS011;17473;52.286;20.930;2023-05-14T07:49:01;7.75;;;4.78;;
30723;SDS011;17473;52.286;20.930;2023-05-14T07:51:29;7.03;;;4.10;;
30723;SDS011;17473;52.286;20.930;2023-05-14T07:53:58;6.03;;;3.92;;
30723;SDS011;17473;52.286;20.930;2023-05-14T07:56:25;6.47;;;4.00;;
30723;SDS011;17473;52.286;20.930;2023-05-14T07:58:52;9.35;;;4.47;;
30723;SDS011;17473;52.286;20.930;2023-05-14T08:01:20;10.27;;;4.75;;
30723;SDS011;17473;52.286;20.930;2023-05-14T08:03:48;6.95;;;4.35;;
30723;SDS011;17473;52.286;20.930;2023-05-14T08:06:15;9.55;;;3.58;;
30723;SDS011;17473;52.286;20.930;2023-05-14T08:08:42;8.18;;;4.05;;
30723;SDS011;17473;52.286;20.930;2023-05-14T08:11:09;6.22;;;3.92;;
30723;SDS011;17473;52.286;20.930;2023-05-14T08:13:36;5.90;;;3.90;;
30723;SDS011;17473;52.286;20.930;2023-05-14T08:16:03;6.90;;;3.97;;
30723;SDS011;17473;52.286;20.930;2023-05-14T08:18:31;6.25;;;4.07;;
30723;SDS011;17473;52.286;20.930;2023-05-14T08:20:58;6.80;;;3.97;;
30723;SDS011;17473;52.286;20.930;2023-05-14T08:23:28;5.85;;;3.95;;
30723;SDS011;17473;52.286;20.930;2023-05-14T08:25:55;8.27;;;4.15;;
30723;SDS011;17473;52.286;20.930;2023-05-14T08:28:22;7.65;;;4.03;;
30723;SDS011;17473;52.286;20.930;2023-05-14T08:30:49;10.05;;;4.05;;
30723;SDS011;17473;52.286;20.930;2023-05-14T08:33:16;9.18;;;4.32;;
30723;SDS011;17473;52.286;20.930;2023-05-14T08:35:43;6.43;;;3.80;;
30723;SDS011;17473;52.286;20.930;2023-05-14T08:38:10;7.15;;;3.90;;
30723;SDS011;17473;52.286;20.930;2023-05-14T08:40:38;9.40;;;3.92;;
30723;SDS011;17473;52.286;20.930;2023-05-14T08:43:05;10.40;;;4.25;;
30723;SDS011;17473;52.286;20.930;2023-05-14T08:45:34;5.60;;;3.63;;
30723;SDS011;17473;52.286;20.930;2023-05-14T08:48:03;6.60;;;3.75;;
30723;SDS011;17473;52.286;20.930;2023-05-14T08:50:36;4.60;;;3.22;;
30723;SDS011;17473;52.286;20.930;2023-05-14T08:53:03;10.95;;;4.05;;
30723;SDS011;17473;52.286;20.930;2023-05-14T08:55:30;8.52;;;3.50;;
30723;SDS011;17473;52.286;20.930;2023-05-14T08:57:59;9.95;;;3.42;;
30723;SDS011;17473;52.286;20.930;2023-05-14T09:00:26;4.78;;;3.30;;
30723;SDS011;17473;52.286;20.930;2023-05-14T09:02:53;7.28;;;3.85;;
30723;SDS011;17473;52.286;20.930;2023-05-14T09:05:21;5.03;;;2.97;;
30723;SDS011;17473;52.286;20.930;2023-05-14T09:07:48;5.50;;;3.28;;
30723;SDS011;17473;52.286;20.930;2023-05-14T09:10:16;5.13;;;3.13;;
30723;SDS011;17473;52.286;20.930;2023-05-14T09:12:43;6.10;;;3.55;;
30723;SDS011;17473;52.286;20.930;2023-05-14T09:15:10;9.27;;;3.63;;
30723;SDS011;17473;52.286;20.930;2023-05-14T09:17:38;8.45;;;3.38;;
30723;SDS011;17473;52.286;20.930;2023-05-14T09:20:06;5.47;;;3.10;;
30723;SDS011;17473;52.286;20.930;2023-05-14T09:22:34;6.65;;;3.47;;
30723;SDS011;17473;52.286;20.930;2023-05-14T09:25:05;6.32;;;2.83;;
30723;SDS011;17473;52.286;20.930;2023-05-14T09:27:35;5.57;;;2.85;;
30723;SDS011;17473;52.286;20.930;2023-05-14T09:32:38;7.05;;;3.35;;
30723;SDS011;17473;52.286;20.930;2023-05-14T09:35:16;7.55;;;2.63;;
30723;SDS011;17473;52.286;20.930;2023-05-14T09:37:51;5.90;;;3.10;;
30723;SDS011;17473;52.286;20.930;2023-05-14T09:40:20;6.82;;;2.50;;
30723;SDS011;17473;52.286;20.930;2023-05-14T09:42:49;5.65;;;3.03;;
30723;SDS011;17473;52.286;20.930;2023-05-14T09:45:16;4.05;;;3.03;;
30723;SDS011;17473;52.286;20.930;2023-05-14T09:47:43;4.43;;;2.83;;
30723;SDS011;17473;52.286;20.930;2023-05-14T09:50:11;5.07;;;2.25;;
30723;SDS011;17473;52.286;20.930;2023-05-14T09:52:38;3.50;;;2.65;;
30723;SDS011;17473;52.286;20.930;2023-05-14T09:55:06;6.47;;;2.70;;
30723;SDS011;17473;52.286;20.930;2023-05-14T09:57:33;3.05;;;2.47;;
30723;SDS011;17473;52.286;20.930;2023-05-14T10:00:00;5.28;;;2.88;;
30723;SDS011;17473;52.286;20.930;2023-05-14T10:02:29;3.85;;;2.58;;
30723;SDS011;17473;52.286;20.930;2023-05-14T10:05:04;6.00;;;2.42;;
30723;SDS011;17473;52.286;20.930;2023-05-14T10:07:37;7.63;;;2.75;;
30723;SDS011;17473;52.286;20.930;2023-05-14T10:10:15;10.45;;;2.60;;
30723;SDS011;17473;52.286;20.930;2023-05-14T10:12:56;4.18;;;2.47;;
30723;SDS011;17473;52.286;20.930;2023-05-14T10:15:32;3.80;;;2.65;;
30723;SDS011;17473;52.286;20.930;2023-05-14T10:18:10;3.65;;;2.47;;
30723;SDS011;17473;52.286;20.930;2023-05-14T10:20:41;4.68;;;2.42;;
30723;SDS011;17473;52.286;20.930;2023-05-14T10:23:09;3.92;;;2.47;;
30723;SDS011;17473;52.286;20.930;2023-05-14T10:25:36;4.07;;;2.85;;
30723;SDS011;17473;52.286;20.930;2023-05-14T10:28:04;5.43;;;2.78;;
30723;SDS011;17473;52.286;20.930;2023-05-14T10:30:31;5.78;;;2.47;;
30723;SDS011;17473;52.286;20.930;2023-05-14T10:33:08;3.97;;;2.30;;
30723;SDS011;17473;52.286;20.930;2023-05-14T10:38:35;4.30;;;2.65;;
30723;SDS011;17473;52.286;20.930;2023-05-14T10:41:06;7.50;;;2.88;;
30723;SDS011;17473;52.286;20.930;2023-05-14T10:43:38;3.63;;;2.40;;
30723;SDS011;17473;52.286;20.930;2023-05-14T10:46:07;10.68;;;3.35;;
30723;SDS011;17473;52.286;20.930;2023-05-14T10:48:38;3.35;;;2.42;;
30723;SDS011;17473;52.286;20.930;2023-05-14T10:51:08;8.77;;;2.55;;
30723;SDS011;17473;52.286;20.930;2023-05-14T10:53:40;5.68;;;3.10;;
30723;SDS011;17473;52.286;20.930;2023-05-14T10:56:09;5.47;;;3.00;;
30723;SDS011;17473;52.286;20.930;2023-05-14T10:58:40;4.78;;;2.50;;
30723;SDS011;17473;52.286;20.930;2023-05-14T11:01:10;6.68;;;2.72;;
30723;SDS011;17473;52.286;20.930;2023-05-14T11:03:42;5.78;;;3.05;;
30723;SDS011;17473;52.286;20.930;2023-05-14T11:06:14;4.38;;;2.25;;
30723;SDS011;17473;52.286;20.930;2023-05-14T11:08:42;4.13;;;2.40;;
30723;SDS011;17473;52.286;20.930;2023-05-14T11:11:09;5.65;;;2.30;;
30723;SDS011;17473;52.286;20.930;2023-05-14T11:13:37;4.78;;;3.08;;
30723;SDS011;17473;52.286;20.930;2023-05-14T11:16:04;8.73;;;2.85;;
30723;SDS011;17473;52.286;20.930;2023-05-14T11:18:34;4.15;;;2.75;;
30723;SDS011;17473;52.286;20.930;2023-05-14T11:21:03;3.78;;;2.70;;
30723;SDS011;17473;52.286;20.930;2023-05-14T11:23:31;9.18;;;2.40;;
30723;SDS011;17473;52.286;20.930;2023-05-14T11:25:58;4.30;;;2.60;;
30723;SDS011;17473;52.286;20.930;2023-05-14T11:28:25;7.00;;;2.60;;
30723;SDS011;17473;52.286;20.930;2023-05-14T11:30:52;2.47;;;2.28;;
30723;SDS011;17473;52.286;20.930;2023-05-14T11:33:19;6.28;;;2.85;;
30723;SDS011;17473;52.286;20.930;2023-05-14T11:35:46;6.82;;;2.83;;
30723;SDS011;17473;52.286;20.930;2023-05-14T11:38:17;7.60;;;2.40;;
30723;SDS011;17473;52.286;20.930;2023-05-14T11:40:53;4.90;;;2.40;;
30723;SDS011;17473;52.286;20.930;2023-05-14T11:43:22;3.25;;;2.03;;
30723;SDS011;17473;52.286;20.930;2023-05-14T11:45:51;6.72;;;2.85;;
30723;SDS011;17473;52.286;20.930;2023-05-14T11:48:20;6.38;;;2.80;;
30723;SDS011;17473;52.286;20.930;2023-05-14T11:50:48;3.42;;;2.20;;
30723;SDS011;17473;52.286;20.930;2023-05-14T11:53:24;4.20;;;2.92;;
30723;SDS011;17473;52.286;20.930;2023-05-14T11:55:53;3.40;;;2.42;;
30723;SDS011;17473;52.286;20.930;2023-05-14T11:58:23;4.82;;;2.38;;
30723;SDS011;17473;52.286;20.930;2023-05-14T12:00:50;4.00;;;2.30;;
30723;SDS011;17473;52.286;20.930;2023-05-14T12:03:18;6.05;;;2.30;;
30723;SDS011;17473;52.286;20.930;2023-05-14T12:05:54;4.90;;;2.58;;
30723;SDS011;17473;52.286;20.930;2023-05-14T12:08:29;5.50;;;1.90;;
30723;SDS011;17473;52.286;20.930;2023-05-14T12:10:57;7.18;;;2.63;;
30723;SDS011;17473;52.286;20.930;2023-05-14T12:13:29;4.50;;;2.65;;
30723;SDS011;17473;52.286;20.930;2023-05-14T12:15:58;6.53;;;2.67;;
30723;SDS011;17473;52.286;20.930;2023-05-14T12:18:28;3.55;;;2.53;;
30723;SDS011;17473;52.286;20.930;2023-05-14T12:21:04;5.32;;;2.33;;
30723;SDS011;17473;52.286;20.930;2023-05-14T12:23:33;5.38;;;2.25;;
30723;SDS011;17473;52.286;20.930;2023-05-14T12:26:01;5.55;;;2.25;;
30723;SDS011;17473;52.286;20.930;2023-05-14T12:28:32;2.95;;;2.33;;
30723;SDS011;17473;52.286;20.930;2023-05-14T12:31:03;5.53;;;2.50;;
30723;SDS011;17473;52.286;20.930;2023-05-14T12:33:31;6.97;;;2.60;;
30723;SDS011;17473;52.286;20.930;2023-05-14T12:35:58;7.00;;;2.22;;
30723;SDS011;17473;52.286;20.930;2023-05-14T12:38:46;2.00;;;1.80;;
30723;SDS011;17473;52.286;20.930;2023-05-14T12:41:13;6.25;;;2.28;;
30723;SDS011;17473;52.286;20.930;2023-05-14T12:43:44;5.07;;;2.20;;
30723;SDS011;17473;52.286;20.930;2023-05-14T12:46:14;2.40;;;1.85;;
30723;SDS011;17473;52.286;20.930;2023-05-14T12:48:42;12.35;;;2.17;;
30723;SDS011;17473;52.286;20.930;2023-05-14T12:51:09;5.30;;;2.47;;
30723;SDS011;17473;52.286;20.930;2023-05-14T12:53:36;6.93;;;2.30;;
30723;SDS011;17473;52.286;20.930;2023-05-14T12:56:03;6.93;;;2.35;;
30723;SDS011;17473;52.286;20.930;2023-05-14T12:58:31;4.88;;;2.53;;
30723;SDS011;17473;52.286;20.930;2023-05-14T13:00:58;2.22;;;2.03;;
30723;SDS011;17473;52.286;20.930;2023-05-14T13:03:25;3.90;;;2.45;;
30723;SDS011;17473;52.286;20.930;2023-05-14T13:05:53;3.45;;;2.22;;
30723;SDS011;17473;52.286;20.930;2023-05-14T13:08:20;2.88;;;2.40;;
30723;SDS011;17473;52.286;20.930;2023-05-14T13:10:50;2.90;;;1.88;;
30723;SDS011;17473;52.286;20.930;2023-05-14T13:13:18;4.55;;;2.15;;
30723;SDS011;17473;52.286;20.930;2023-05-14T13:15:45;6.03;;;2.60;;
30723;SDS011;17473;52.286;20.930;2023-05-14T13:18:13;4.90;;;2.35;;
30723;SDS011;17473;52.286;20.930;2023-05-14T13:20:41;2.90;;;1.88;;
30723;SDS011;17473;52.286;20.930;2023-05-14T13:23:10;3.95;;;2.10;;
30723;SDS011;17473;52.286;20.930;2023-05-14T13:25:37;10.32;;;2.40;;
30723;SDS011;17473;52.286;20.930;2023-05-14T13:28:05;4.43;;;2.03;;
30723;SDS011;17473;52.286;20.930;2023-05-14T13:30:33;2.97;;;2.20;;
30723;SDS011;17473;52.286;20.930;2023-05-14T13:33:00;6.38;;;2.53;;
30723;SDS011;17473;52.286;20.930;2023-05-14T13:35:27;4.93;;;2.50;;
30723;SDS011;17473;52.286;20.930;2023-05-14T13:37:54;3.80;;;2.15;;
30723;SDS011;17473;52.286;20.930;2023-05-14T13:40:21;3.35;;;2.45;;
30723;SDS011;17473;52.286;20.930;2023-05-14T13:42:48;2.58;;;1.80;;
30723;SDS011;17473;52.286;20.930;2023-05-14T13:45:15;5.68;;;2.40;;
30723;SDS011;17473;52.286;20.930;2023-05-14T13:47:42;5.97;;;2.15;;
30723;SDS011;17473;52.286;20.930;2023-05-14T13:50:10;5.28;;;1.98;;
30723;SDS011;17473;52.286;20.930;2023-05-14T13:52:37;3.55;;;2.20;;
30723;SDS011;17473;52.286;20.930;2023-05-14T13:55:04;5.72;;;2.38;;
30723;SDS011;17473;52.286;20.930;2023-05-14T13:57:32;4.25;;;2.67;;
30723;SDS011;17473;52.286;20.930;2023-05-14T13:59:59;5.18;;;2.30;;
30723;SDS011;17473;52.286;20.930;2023-05-14T14:02:26;5.32;;;2.30;;
30723;SDS011;17473;52.286;20.930;2023-05-14T14:04:53;3.88;;;2.35;;
30723;SDS011;17473;52.286;20.930;2023-05-14T14:07:21;6.13;;;2.53;;
30723;SDS011;17473;52.286;20.930;2023-05-14T14:09:48;3.90;;;2.38;;
30723;SDS011;17473;52.286;20.930;2023-05-14T14:12:15;3.65;;;2.30;;
30723;SDS011;17473;52.286;20.930;2023-05-14T14:14:42;4.80;;;2.30;;
30723;SDS011;17473;52.286;20.930;2023-05-14T14:17:09;3.15;;;2.15;;
30723;SDS011;17473;52.286;20.930;2023-05-14T14:19:36;4.22;;;2.33;;
30723;SDS011;17473;52.286;20.930;2023-05-14T14:22:03;2.67;;;2.03;;
30723;SDS011;17473;52.286;20.930;2023-05-14T14:24:30;6.72;;;2.58;;
30723;SDS011;17473;52.286;20.930;2023-05-14T14:26:57;2.80;;;2.28;;
30723;SDS011;17473;52.286;20.930;2023-05-14T14:29:25;2.92;;;2.10;;
30723;SDS011;17473;52.286;20.930;2023-05-14T14:31:54;5.07;;;2.33;;
30723;SDS011;17473;52.286;20.930;2023-05-14T14:34:21;5.15;;;2.25;;
30723;SDS011;17473;52.286;20.930;2023-05-14T14:36:48;6.78;;;3.08;;
30723;SDS011;17473;52.286;20.930;2023-05-14T14:39:15;6.88;;;2.30;;
30723;SDS011;17473;52.286;20.930;2023-05-14T14:41:42;6.50;;;3.60;;
30723;SDS011;17473;52.286;20.930;2023-05-14T14:44:09;3.97;;;2.38;;